Fruto Da Uniao — CUHI7 — position and weather

sailwx.info

Track history (hours):
 
Tides and Currents Weather Stations Pressure Air Temp Water Temp Dewpoint Dewpoint Depression Visibility Wind Speed Wind Dir Waves Ship Positions

Fruto Da Uniao

Last reported at 2018-Nov-10 12:41 UTC. Time now 2018-Nov-22 11:10 UTC.
Position N 38°60' W 009°29'.
Warning: this ship's position is 11 days out of date.

MMSI: 263402650.

Date/timePositionNaut miles runAvg speedWind from/ knotsBaromVisibWave heightAir tempDewpointWater temp
2018-Nov-10 12:41N 38°60' W 009°29'1 7.3
2018-Nov-10 12:32N 39°01' W 009°29'4 7.4
2018-Nov-10 12:02N 39°04' W 009°28'4 7.5
2018-Nov-10 11:32N 39°08' W 009°27'4 7.6
2018-Nov-10 11:02N 39°12' W 009°25'4 7.7
2018-Nov-10 10:30N 39°16' W 009°24'6 0.3
2018-Nov-09 17:29N 39°21' W 009°22'19 1.5
2018-Nov-09 05:09N 39°04' W 009°31'1 8.0
2018-Nov-09 05:02N 39°05' W 009°31'4 7.7
2018-Nov-09 04:32N 39°08' W 009°29'4 7.8
2018-Nov-09 04:02N 39°12' W 009°27'10 0.7
2018-Nov-08 14:36N 39°21' W 009°22'0 0.2
2018-Nov-08 14:22N 39°21' W 009°22'0 0.4
2018-Nov-08 14:02N 39°21' W 009°22'0 0.0
2018-Nov-08 13:32N 39°21' W 009°22'23 1.8
2018-Nov-08 00:37N 38°59' W 009°30'0 1.9
2018-Nov-08 00:32N 38°59' W 009°30'0 0.6
2018-Nov-08 00:29N 38°59' W 009°30'0 0.7
2018-Nov-08 00:02N 38°58' W 009°30'0 0.7
2018-Nov-07 23:32N 38°58' W 009°30'0 0.7
2018-Nov-07 23:02N 38°58' W 009°30'0 0.6
2018-Nov-07 22:32N 38°58' W 009°30'0 0.5
2018-Nov-07 22:02N 38°57' W 009°31'0 0.5
2018-Nov-07 21:32N 38°57' W 009°31'0 0.6
2018-Nov-07 21:02N 38°57' W 009°31'0 0.5
2018-Nov-07 20:32N 38°57' W 009°32'0 0.6
2018-Nov-07 20:02N 38°57' W 009°32'0 0.5
2018-Nov-07 19:32N 38°57' W 009°32'1 2.2
2018-Nov-07 19:02N 38°58' W 009°33'4 7.6
2018-Nov-07 18:32N 38°54' W 009°34'5 0.4
2018-Nov-07 06:03N 38°59' W 009°30'0 5.5
2018-Nov-07 06:02N 38°59' W 009°30'4 7.1
2018-Nov-07 05:32N 39°02' W 009°30'3 6.2
2018-Nov-07 05:03N 39°05' W 009°29'3 6.2
2018-Nov-07 04:32N 39°08' W 009°28'14 0.6
2018-Nov-06 05:06N 38°54' W 009°32'0 8.0
2018-Nov-06 05:03N 38°55' W 009°33'0 7.9
2018-Nov-06 05:00N 38°55' W 009°33'14 2.8
2018-Nov-06 00:08N 39°08' W 009°29'5 7.7
2018-Nov-05 23:30N 39°12' W 009°27'3 7.8
2018-Nov-05 23:03N 39°16' W 009°25'6 0.4
2018-Nov-05 08:47N 39°21' W 009°22'0 0.0
2018-Nov-05 08:29N 39°21' W 009°22'0 0.0
2018-Nov-05 08:03N 39°21' W 009°22'0 0.0
2018-Nov-05 07:58N 39°21' W 009°22'0 0.0
2018-Nov-05 07:30N 39°21' W 009°22'15 0.5
2018-Nov-04 03:45N 39°07' W 009°27'2 8.4
2018-Nov-04 03:30N 39°09' W 009°26'8 0.3
2018-Nov-03 04:44N 39°14' W 009°33'2 8.3
2018-Nov-03 04:30N 39°15' W 009°32'2 0.1
2018-Nov-02 05:01N 39°14' W 009°32'0 7.4
2018-Nov-02 05:00N 39°14' W 009°32'4 7.7
2018-Nov-02 04:30N 39°16' W 009°28'3 7.7
2018-Nov-02 04:03N 39°19' W 009°25'0 7.7
2018-Nov-02 04:00N 39°19' W 009°25'  
Track history (hours):
 
Tides and Currents Weather Stations Pressure Air Temp Water Temp Dewpoint Dewpoint Depression Visibility Wind Speed Wind Dir Waves Ship Positions

Fruto Da Uniao

Last reported at 2018-Nov-10 12:41 UTC. Time now 2018-Nov-22 11:10 UTC.
Position N 38°60' W 009°29'.
Warning: this ship's position is 11 days out of date.

MMSI: 263402650.

Date/timePositionNaut miles runAvg speedWind from/ knotsBaromVisibWave heightAir tempDewpointWater temp
2018-Nov-10 12:41N 38°60' W 009°29'1 7.3
2018-Nov-10 12:32N 39°01' W 009°29'4 7.4
2018-Nov-10 12:02N 39°04' W 009°28'4 7.5
2018-Nov-10 11:32N 39°08' W 009°27'4 7.6
2018-Nov-10 11:02N 39°12' W 009°25'4 7.7
2018-Nov-10 10:30N 39°16' W 009°24'6 0.3
2018-Nov-09 17:29N 39°21' W 009°22'19 1.5
2018-Nov-09 05:09N 39°04' W 009°31'1 8.0
2018-Nov-09 05:02N 39°05' W 009°31'4 7.7
2018-Nov-09 04:32N 39°08' W 009°29'4 7.8
2018-Nov-09 04:02N 39°12' W 009°27'10 0.7
2018-Nov-08 14:36N 39°21' W 009°22'0 0.2
2018-Nov-08 14:22N 39°21' W 009°22'0 0.4
2018-Nov-08 14:02N 39°21' W 009°22'0 0.0
2018-Nov-08 13:32N 39°21' W 009°22'23 1.8
2018-Nov-08 00:37N 38°59' W 009°30'0 1.9
2018-Nov-08 00:32N 38°59' W 009°30'0 0.6
2018-Nov-08 00:29N 38°59' W 009°30'0 0.7
2018-Nov-08 00:02N 38°58' W 009°30'0 0.7
2018-Nov-07 23:32N 38°58' W 009°30'0 0.7
2018-Nov-07 23:02N 38°58' W 009°30'0 0.6
2018-Nov-07 22:32N 38°58' W 009°30'0 0.5
2018-Nov-07 22:02N 38°57' W 009°31'0 0.5
2018-Nov-07 21:32N 38°57' W 009°31'0 0.6
2018-Nov-07 21:02N 38°57' W 009°31'0 0.5
2018-Nov-07 20:32N 38°57' W 009°32'0 0.6
2018-Nov-07 20:02N 38°57' W 009°32'0 0.5
2018-Nov-07 19:32N 38°57' W 009°32'1 2.2
2018-Nov-07 19:02N 38°58' W 009°33'4 7.6
2018-Nov-07 18:32N 38°54' W 009°34'5 0.4
2018-Nov-07 06:03N 38°59' W 009°30'0 5.5
2018-Nov-07 06:02N 38°59' W 009°30'4 7.1
2018-Nov-07 05:32N 39°02' W 009°30'3 6.2
2018-Nov-07 05:03N 39°05' W 009°29'3 6.2
2018-Nov-07 04:32N 39°08' W 009°28'14 0.6
2018-Nov-06 05:06N 38°54' W 009°32'0 8.0
2018-Nov-06 05:03N 38°55' W 009°33'0 7.9
2018-Nov-06 05:00N 38°55' W 009°33'14 2.8
2018-Nov-06 00:08N 39°08' W 009°29'5 7.7
2018-Nov-05 23:30N 39°12' W 009°27'3 7.8
2018-Nov-05 23:03N 39°16' W 009°25'6 0.4
2018-Nov-05 08:47N 39°21' W 009°22'0 0.0
2018-Nov-05 08:29N 39°21' W 009°22'0 0.0
2018-Nov-05 08:03N 39°21' W 009°22'0 0.0
2018-Nov-05 07:58N 39°21' W 009°22'0 0.0
2018-Nov-05 07:30N 39°21' W 009°22'15 0.5
2018-Nov-04 03:45N 39°07' W 009°27'2 8.4
2018-Nov-04 03:30N 39°09' W 009°26'8 0.3
2018-Nov-03 04:44N 39°14' W 009°33'2 8.3
2018-Nov-03 04:30N 39°15' W 009°32'2 0.1
2018-Nov-02 05:01N 39°14' W 009°32'0 7.4
2018-Nov-02 05:00N 39°14' W 009°32'4 7.7
2018-Nov-02 04:30N 39°16' W 009°28'3 7.7
2018-Nov-02 04:03N 39°19' W 009°25'0 7.7
2018-Nov-02 04:00N 39°19' W 009°25'  

Dump ship's entire track history